createdAt,value
2018-05-29T00:02:19.538Z,67.04
2018-05-29T00:05:24.413Z,67.03
2018-05-29T00:08:29.982Z,67.04
2018-05-29T00:11:35.670Z,67.14
2018-05-29T00:14:49.861Z,67.03
2018-05-29T00:17:55.070Z,67.00
2018-05-29T00:21:00.286Z,66.88
2018-05-29T00:24:05.499Z,66.83
2018-05-29T00:27:11.229Z,66.90
2018-05-29T00:30:17.368Z,66.88
2018-05-29T00:33:23.357Z,67.09
2018-05-29T00:36:28.610Z,67.04
2018-05-29T00:39:33.517Z,67.04
2018-05-29T00:42:38.732Z,67.13
2018-05-29T00:45:43.921Z,67.18
2018-05-29T00:48:49.218Z,67.33
2018-05-29T00:51:54.409Z,67.34
2018-05-29T00:55:11.495Z,67.27
2018-05-29T00:58:18.152Z,67.34
2018-05-29T01:01:23.801Z,67.35
2018-05-29T01:04:29.003Z,67.50
2018-05-29T01:07:34.843Z,67.37
2018-05-29T01:10:40.041Z,67.38
2018-05-29T01:13:44.990Z,67.37
2018-05-29T01:16:50.268Z,67.42
2018-05-29T01:19:55.629Z,67.45
2018-05-29T01:23:01.749Z,67.49
2018-05-29T01:26:07.374Z,67.55
2018-05-29T01:29:13.259Z,67.36
2018-05-29T01:32:18.173Z,67.44
2018-05-29T01:35:23.406Z,67.12
2018-05-29T01:38:28.605Z,66.97
2018-05-29T01:41:33.860Z,66.70
2018-05-29T01:44:39.225Z,67.17
2018-05-29T01:47:45.347Z,67.23
2018-05-29T01:50:50.273Z,67.22
2018-05-29T01:53:55.680Z,67.25
2018-05-29T01:57:00.622Z,67.12
2018-05-29T02:00:06.097Z,67.06
2018-05-29T02:03:11.932Z,67.08
2018-05-29T02:06:16.867Z,67.10
2018-05-29T02:09:22.870Z,67.01
2018-05-29T02:12:27.896Z,66.92
2018-05-29T02:15:32.825Z,66.88
2018-05-29T02:18:38.775Z,66.44
2018-05-29T02:21:44.029Z,66.76
2018-05-29T02:24:49.936Z,66.73
2018-05-29T02:27:56.384Z,66.44
2018-05-29T02:31:02.120Z,66.23
2018-05-29T02:34:07.311Z,66.32
2018-05-29T02:37:12.524Z,66.28
2018-05-29T02:40:17.767Z,66.38
2018-05-29T02:43:23.998Z,66.16
2018-05-29T02:46:29.720Z,66.06
2018-05-29T02:49:35.544Z,66.17
2018-05-29T02:52:41.158Z,65.98
2018-05-29T02:55:46.567Z,66.35
2018-05-29T02:58:51.485Z,66.34
2018-05-29T03:01:56.833Z,66.09
2018-05-29T03:05:02.332Z,66.17
2018-05-29T03:08:07.262Z,66.27
2018-05-29T03:11:12.617Z,66.38
2018-05-29T03:14:18.259Z,66.45
2018-05-29T03:17:23.456Z,66.56
2018-05-29T03:20:29.591Z,66.77
2018-05-29T03:23:35.623Z,66.92
2018-05-29T03:26:41.453Z,67.05
2018-05-29T03:29:47.106Z,67.03
2018-05-29T03:32:54.141Z,67.18
2018-05-29T03:36:16.856Z,67.20
2018-05-29T03:39:29.877Z,67.32
2018-05-29T03:42:35.134Z,67.31
2018-05-29T03:45:41.132Z,67.27
2018-05-29T03:48:46.344Z,67.09
2018-05-29T03:51:52.305Z,67.18
2018-05-29T03:54:57.521Z,67.18
2018-05-29T03:58:03.649Z,67.20
2018-05-29T04:01:09.646Z,67.34
2018-05-29T04:04:15.387Z,67.16
2018-05-29T04:07:22.219Z,67.09
2018-05-29T04:10:28.165Z,67.21
2018-05-29T04:13:34.069Z,67.12
2018-05-29T04:16:39.336Z,67.14
2018-05-29T04:19:44.548Z,67.41
2018-05-29T04:22:49.533Z,67.58
2018-05-29T04:25:55.942Z,67.55
2018-05-29T04:29:02.233Z,67.66
2018-05-29T04:32:08.160Z,67.63
2018-05-29T04:35:14.164Z,67.86
2018-05-29T04:38:19.372Z,67.94
2018-05-29T04:41:24.576Z,68.20
2018-05-29T04:44:29.772Z,68.24
2018-05-29T04:47:35.899Z,68.22
2018-05-29T04:50:41.100Z,68.30
2018-05-29T04:53:46.789Z,68.25
2018-05-29T04:56:51.764Z,68.08
2018-05-29T04:59:56.973Z,68.13
2018-05-29T05:03:02.176Z,68.54
2018-05-29T05:06:08.029Z,68.40
2018-05-29T05:09:14.265Z,68.42
2018-05-29T05:12:20.145Z,68.29
2018-05-29T05:15:26.322Z,68.85
2018-05-29T05:18:32.137Z,68.53
2018-05-29T05:21:38.260Z,68.56
2018-05-29T05:24:43.494Z,68.63
2018-05-29T05:27:48.668Z,69.09
2018-05-29T05:30:53.887Z,69.02
2018-05-29T05:33:59.511Z,69.11
2018-05-29T05:37:05.121Z,69.11
2018-05-29T05:40:10.332Z,69.00
2018-05-29T05:46:19.925Z,69.33
2018-05-29T05:49:25.162Z,69.03
2018-05-29T05:52:31.182Z,69.62
2018-05-29T05:55:37.312Z,69.73
2018-05-29T05:58:42.518Z,69.57
2018-05-29T06:01:47.724Z,70.12
2018-05-29T06:04:54.046Z,69.44
2018-05-29T06:07:59.642Z,69.44
2018-05-29T06:11:05.385Z,69.32
2018-05-29T06:14:11.092Z,69.82
2018-05-29T06:17:17.125Z,69.98
2018-05-29T06:20:23.236Z,69.89
2018-05-29T06:23:29.148Z,70.03
2018-05-29T06:26:35.164Z,69.83
2018-05-29T06:29:40.385Z,69.89
2018-05-29T06:32:45.307Z,69.77
2018-05-29T06:35:51.645Z,69.77
2018-05-29T06:38:56.842Z,70.44
2018-05-29T06:42:03.483Z,70.01
2018-05-29T06:45:08.430Z,70.07
2018-05-29T06:48:14.152Z,69.86
2018-05-29T06:51:19.420Z,69.78
2018-05-29T06:54:25.251Z,69.94
2018-05-29T06:57:30.876Z,69.88
2018-05-29T07:00:37.001Z,69.95
2018-05-29T07:03:41.939Z,70.27
2018-05-29T07:06:47.688Z,69.80
2018-05-29T07:09:52.896Z,70.20
2018-05-29T07:12:57.827Z,70.20
2018-05-29T07:16:04.178Z,70.00
2018-05-29T07:19:09.517Z,69.67
2018-05-29T07:22:14.996Z,69.81
2018-05-29T07:25:21.105Z,69.81
2018-05-29T07:28:27.133Z,70.19
2018-05-29T07:31:33.250Z,69.77
2018-05-29T07:34:39.276Z,69.71
2018-05-29T07:37:45.316Z,69.75
2018-05-29T07:40:50.515Z,69.68
2018-05-29T07:43:55.719Z,69.29
2018-05-29T07:47:00.664Z,69.47
2018-05-29T07:50:06.803Z,69.95
2018-05-29T07:53:12.953Z,69.39
2018-05-29T07:56:18.165Z,69.39
2018-05-29T07:59:23.379Z,69.67
2018-05-29T08:02:28.242Z,70.09
2018-05-29T08:05:34.177Z,69.77
2018-05-29T08:08:40.317Z,70.30
2018-05-29T08:11:45.936Z,69.69
2018-05-29T08:14:51.342Z,69.76
2018-05-29T08:17:57.066Z,69.60
2018-05-29T08:21:02.275Z,69.27
2018-05-29T08:24:07.486Z,69.05
2018-05-29T08:27:13.207Z,69.31
2018-05-29T08:30:18.428Z,69.20
2018-05-29T08:33:23.645Z,68.82
2018-05-29T08:36:28.848Z,68.92
2018-05-29T08:39:34.700Z,68.95
2018-05-29T08:42:40.104Z,68.45
2018-05-29T08:45:45.544Z,68.75
2018-05-29T08:48:50.963Z,68.46
2018-05-29T08:51:57.281Z,68.72
2018-05-29T08:55:03.382Z,68.60
2018-05-29T08:58:09.390Z,68.44
2018-05-29T09:01:14.595Z,68.21
2018-05-29T09:04:19.850Z,68.29
2018-05-29T09:07:26.013Z,68.15
2018-05-29T09:10:32.128Z,68.04
2018-05-29T09:13:38.262Z,67.70
2018-05-29T09:16:43.665Z,67.62
2018-05-29T09:19:49.068Z,67.56
2018-05-29T09:22:54.281Z,67.18
2018-05-29T09:25:59.928Z,66.97
2018-05-29T09:29:06.193Z,66.69
2018-05-29T09:32:11.407Z,66.53
2018-05-29T09:35:16.617Z,66.16
2018-05-29T09:38:21.817Z,66.21
2018-05-29T09:41:27.471Z,66.09
2018-05-29T09:44:33.554Z,65.87
2018-05-29T09:47:38.766Z,65.44
2018-05-29T09:50:44.501Z,65.21
2018-05-29T09:53:49.702Z,64.67
2018-05-29T09:56:54.913Z,64.47
2018-05-29T10:00:01.232Z,64.06
2018-05-29T10:03:07.773Z,63.79
2018-05-29T10:06:13.422Z,63.40
2018-05-29T10:09:19.079Z,63.16
2018-05-29T10:12:24.497Z,63.02
2018-05-29T10:15:30.541Z,63.38
2018-05-29T10:18:35.749Z,63.11
2018-05-29T10:21:41.836Z,62.98
2018-05-29T10:24:47.457Z,62.74
2018-05-29T10:27:53.101Z,62.68
2018-05-29T10:30:58.356Z,62.54
2018-05-29T10:34:04.517Z,62.42
2018-05-29T10:37:10.437Z,62.32
2018-05-29T10:40:15.636Z,62.53
2018-05-29T10:43:20.232Z,62.13
2018-05-29T10:46:25.979Z,62.09
2018-05-29T10:49:31.175Z,61.94
2018-05-29T10:52:36.412Z,61.87
2018-05-29T10:55:41.821Z,61.97
2018-05-29T10:58:47.029Z,61.57
2018-05-29T11:01:53.356Z,61.24
2018-05-29T11:04:59.144Z,61.29
2018-05-29T11:08:03.842Z,61.10
2018-05-29T11:11:10.080Z,61.10
2018-05-29T11:14:15.352Z,61.08
2018-05-29T11:17:20.460Z,61.04
2018-05-29T11:20:26.381Z,60.95
2018-05-29T11:23:32.483Z,60.98
2018-05-29T11:26:37.877Z,60.60
2018-05-29T11:29:44.092Z,60.65
2018-05-29T11:32:50.581Z,60.73
2018-05-29T11:35:55.929Z,60.53
2018-05-29T11:39:02.178Z,60.54
2018-05-29T11:42:07.993Z,60.43
2018-05-29T11:45:13.204Z,60.38
2018-05-29T11:48:18.193Z,60.12
2018-05-29T11:51:23.157Z,59.11
2018-05-29T11:54:28.085Z,59.05
2018-05-29T11:57:33.923Z,59.00
2018-05-29T12:00:40.102Z,59.08
2018-05-29T12:03:46.153Z,58.64
2018-05-29T12:06:51.795Z,57.97
2018-05-29T12:09:57.820Z,57.92
2018-05-29T12:13:03.568Z,57.18
2018-05-29T12:16:09.666Z,57.30
2018-05-29T12:19:15.283Z,57.19
2018-05-29T12:22:20.526Z,57.11
2018-05-29T12:25:26.824Z,57.10
2018-05-29T12:28:32.959Z,56.20
2018-05-29T12:31:39.067Z,56.57
2018-05-29T12:34:45.068Z,55.85
2018-05-29T12:37:51.196Z,55.53
2018-05-29T12:40:57.312Z,55.52
2018-05-29T12:44:03.344Z,55.56
2018-05-29T12:47:09.029Z,55.19
2018-05-29T12:50:14.773Z,54.55
2018-05-29T12:53:20.039Z,54.20
2018-05-29T12:56:27.317Z,54.31
2018-05-29T12:59:33.147Z,54.04
2018-05-29T13:02:39.475Z,53.72
2018-05-29T13:05:45.137Z,53.62
2018-05-29T13:08:50.008Z,53.37
2018-05-29T13:11:55.848Z,53.38
2018-05-29T13:15:01.189Z,52.47
2018-05-29T13:18:06.908Z,52.52
2018-05-29T13:21:12.248Z,52.75
2018-05-29T13:24:17.451Z,53.00
2018-05-29T13:27:24.457Z,52.72
2018-05-29T13:30:29.390Z,51.68
2018-05-29T13:33:35.004Z,51.47
2018-05-29T13:36:40.849Z,52.30
2018-05-29T13:39:46.742Z,51.80
2018-05-29T13:42:52.860Z,51.68
2018-05-29T13:45:58.424Z,51.36
2018-05-29T13:49:03.640Z,50.66
2018-05-29T13:52:08.976Z,50.65
2018-05-29T13:55:13.903Z,50.40
2018-05-29T13:58:20.448Z,50.22
2018-05-29T14:01:26.693Z,50.17
2018-05-29T14:04:32.076Z,50.43
2018-05-29T14:07:37.265Z,50.26
2018-05-29T14:10:42.188Z,50.05
2018-05-29T14:13:48.734Z,50.07
2018-05-29T14:16:54.118Z,49.24
2018-05-29T14:19:59.741Z,49.39
2018-05-29T14:23:04.779Z,49.88
2018-05-29T14:26:09.727Z,49.52
2018-05-29T14:29:15.188Z,47.98
2018-05-29T14:32:21.329Z,48.95
2018-05-29T14:35:27.272Z,48.91
2018-05-29T14:38:31.994Z,48.82
2018-05-29T14:41:37.067Z,48.11
2018-05-29T14:44:42.406Z,48.04
2018-05-29T14:47:47.328Z,48.82
2018-05-29T14:50:52.268Z,48.14
2018-05-29T14:53:57.394Z,47.34
2018-05-29T14:57:02.946Z,46.49
2018-05-29T15:00:08.863Z,47.05
2018-05-29T15:03:14.728Z,46.53
2018-05-29T15:06:20.114Z,46.39
2018-05-29T15:09:25.006Z,45.43
2018-05-29T15:12:30.468Z,45.33
2018-05-29T15:15:35.453Z,45.42
2018-05-29T15:18:40.985Z,45.60
2018-05-29T15:21:46.450Z,45.24
2018-05-29T15:24:52.348Z,45.26
2018-05-29T15:27:58.477Z,45.06
2018-05-29T15:31:04.301Z,45.36
2018-05-29T15:34:10.549Z,45.46
2018-05-29T15:37:16.780Z,46.06
2018-05-29T15:40:23.433Z,45.62
2018-05-29T15:43:28.965Z,45.59
2018-05-29T15:46:33.936Z,45.38
2018-05-29T15:49:39.420Z,45.52
2018-05-29T15:52:45.253Z,45.56
2018-05-29T15:55:50.271Z,45.58
2018-05-29T15:58:55.188Z,45.48
2018-05-29T16:02:00.520Z,45.27
2018-05-29T16:05:05.149Z,44.66
2018-05-29T16:08:10.184Z,44.71
2018-05-29T16:11:15.153Z,44.80
2018-05-29T16:14:20.317Z,44.90
2018-05-29T16:17:25.680Z,44.69
2018-05-29T16:20:30.613Z,44.66
2018-05-29T16:23:36.344Z,44.57
2018-05-29T16:26:40.723Z,44.63
2018-05-29T16:29:46.750Z,44.38
2018-05-29T16:32:51.690Z,44.77
2018-05-29T16:35:56.944Z,44.75
2018-05-29T16:39:02.178Z,43.87
2018-05-29T16:42:07.714Z,44.89
2018-05-29T16:45:12.345Z,45.37
2018-05-29T16:48:16.965Z,45.70
2018-05-29T16:51:21.900Z,45.65
2018-05-29T16:54:27.440Z,45.92
2018-05-29T16:57:32.401Z,45.77
2018-05-29T17:00:37.328Z,45.78
2018-05-29T17:03:43.603Z,45.72
2018-05-29T17:06:49.552Z,46.12
2018-05-29T17:09:56.010Z,46.43
2018-05-29T17:13:01.345Z,46.37
2018-05-29T17:16:06.300Z,46.19
2018-05-29T17:19:12.261Z,46.33
2018-05-29T17:22:17.925Z,46.56
2018-05-29T17:25:22.856Z,46.46
2018-05-29T17:28:28.390Z,46.90
2018-05-29T17:31:33.306Z,46.91
2018-05-29T17:34:38.256Z,47.07
2018-05-29T17:37:44.028Z,47.10
2018-05-29T17:40:48.987Z,47.15
2018-05-29T17:43:54.413Z,47.42
2018-05-29T17:47:01.041Z,47.68
2018-05-29T17:50:05.635Z,47.63
2018-05-29T17:53:11.397Z,47.91
2018-05-29T17:56:17.378Z,48.08
2018-05-29T17:59:22.825Z,48.21
2018-05-29T18:02:27.769Z,48.28
2018-05-29T18:05:33.600Z,48.44
2018-05-29T18:08:38.530Z,48.77
2018-05-29T18:11:44.377Z,49.06
2018-05-29T18:14:49.718Z,49.35
2018-05-29T18:17:54.639Z,49.47
2018-05-29T18:20:59.575Z,49.75
2018-05-29T18:24:05.013Z,49.92
2018-05-29T18:27:09.932Z,50.14
2018-05-29T18:30:16.370Z,50.31
2018-05-29T18:33:21.737Z,50.67
2018-05-29T18:36:26.704Z,50.82
2018-05-29T18:39:32.524Z,51.24
2018-05-29T18:42:37.484Z,51.35
2018-05-29T18:45:42.414Z,51.48
2018-05-29T18:48:48.460Z,51.55
2018-05-29T18:51:53.604Z,51.71
2018-05-29T18:54:59.722Z,51.98
2018-05-29T18:58:05.634Z,52.03
2018-05-29T19:01:11.676Z,52.21
2018-05-29T19:04:17.408Z,52.50
2018-05-29T19:07:23.376Z,52.38
2018-05-29T19:10:28.877Z,52.40
2018-05-29T19:13:34.776Z,52.61
2018-05-29T19:16:39.856Z,52.29
2018-05-29T19:19:44.781Z,52.55
2018-05-29T19:22:51.401Z,52.98
2018-05-29T19:25:57.490Z,53.06
2018-05-29T19:29:03.041Z,53.17
2018-05-29T19:32:08.909Z,52.94
2018-05-29T19:35:13.863Z,53.29
2018-05-29T19:38:18.975Z,53.37
2018-05-29T19:41:24.405Z,53.17
2018-05-29T19:44:30.262Z,53.13
2018-05-29T19:47:36.237Z,53.32
2018-05-29T19:50:41.684Z,53.44
2018-05-29T19:53:47.089Z,53.41
2018-05-29T19:56:52.359Z,53.82
2018-05-29T19:59:57.295Z,53.72
2018-05-29T20:03:03.122Z,53.75
2018-05-29T20:06:08.324Z,54.07
2018-05-29T20:09:14.253Z,54.12
2018-05-29T20:12:19.814Z,54.15
2018-05-29T20:15:25.948Z,54.41
2018-05-29T20:18:31.398Z,54.33
2018-05-29T20:21:37.423Z,54.37
2018-05-29T20:24:43.469Z,54.87
2018-05-29T20:27:49.401Z,54.86
2018-05-29T20:30:55.341Z,55.03
2018-05-29T20:34:00.881Z,55.16
2018-05-29T20:37:06.330Z,55.17
2018-05-29T20:40:12.200Z,55.08
2018-05-29T20:43:18.160Z,55.26
2018-05-29T20:46:23.967Z,55.42
2018-05-29T20:49:29.724Z,55.45
2018-05-29T20:52:34.657Z,55.68
2018-05-29T20:55:40.013Z,55.43
2018-05-29T20:58:46.030Z,55.52
2018-05-29T21:01:51.276Z,55.52
2018-05-29T21:04:56.193Z,55.87
2018-05-29T21:08:02.084Z,55.70
2018-05-29T21:11:07.504Z,55.75
2018-05-29T21:14:12.478Z,55.69
2018-05-29T21:17:17.441Z,55.76
2018-05-29T21:20:23.280Z,56.02
2018-05-29T21:23:29.659Z,55.98
2018-05-29T21:26:34.585Z,55.99
2018-05-29T21:29:39.925Z,55.92
2018-05-29T21:32:44.869Z,55.82
2018-05-29T21:35:49.792Z,55.96
2018-05-29T21:38:54.722Z,55.90
2018-05-29T21:42:00.057Z,55.98
2018-05-29T21:45:05.005Z,56.13
2018-05-29T21:48:09.528Z,55.97
2018-05-29T21:51:15.176Z,55.89
2018-05-29T21:54:20.175Z,55.97
2018-05-29T21:57:26.328Z,56.13
2018-05-29T22:00:31.512Z,56.01
2018-05-29T22:03:36.431Z,56.19
2018-05-29T22:06:42.160Z,56.08
2018-05-29T22:09:47.691Z,56.08
2018-05-29T22:12:53.132Z,56.12
2018-05-29T22:15:58.952Z,56.07
2018-05-29T22:19:04.301Z,56.28
2018-05-29T22:22:10.137Z,56.31
2018-05-29T22:25:15.476Z,56.06
2018-05-29T22:28:20.650Z,56.32
2018-05-29T22:31:25.851Z,56.29
2018-05-29T22:34:32.072Z,56.14
2018-05-29T22:37:38.431Z,56.22
2018-05-29T22:40:43.977Z,56.27
2018-05-29T22:43:49.107Z,56.46
2018-05-29T22:46:54.544Z,56.46
2018-05-29T22:49:59.748Z,56.49
2018-05-29T22:53:05.117Z,56.42
2018-05-29T22:56:11.231Z,56.41
2018-05-29T22:59:16.565Z,56.67
2018-05-29T23:02:22.432Z,56.57
2018-05-29T23:05:27.360Z,56.43
2018-05-29T23:08:32.561Z,56.72
2018-05-29T23:11:37.492Z,56.72
2018-05-29T23:14:42.540Z,57.12
2018-05-29T23:17:47.469Z,56.87
2018-05-29T23:20:53.084Z,56.65
2018-05-29T23:23:59.209Z,56.87
2018-05-29T23:27:04.409Z,56.80
2018-05-29T23:30:09.623Z,56.94
2018-05-29T23:33:15.036Z,56.90
2018-05-29T23:36:20.245Z,57.13
2018-05-29T23:39:25.437Z,57.37
2018-05-29T23:42:31.761Z,57.15
2018-05-29T23:45:37.864Z,57.24
2018-05-29T23:48:43.972Z,57.58
2018-05-29T23:51:50.128Z,57.51
2018-05-29T23:54:55.905Z,57.65
2018-05-29T23:58:01.532Z,57.94
